Cape Hatteras National Seash, North Carolina
Current Conditions -  °F | °C
As of 1:55 AM on Tuesday 21 Oct 2014 (Local Time) from KMQI Reporting Station
Overcast Overcast  
Wind Chill: 16°   Ceiling: 5000
Heat Index: 16°   Visibility: 10mi
Dew Point: 15°   Wind: 0mph
Humidity: 96%   Direction: NA
Pressure: 29.96"   Gusts: NA
Location:  35.8834°N, 75.6616°W
Report Text: KMQI 210555Z AUTO 00000KT 10SM BKN050 BKN065 OVC090 16/15 A2996 RMK AO2 T01580152 10188 20142 401960070
Loading
Personal Weather Stations






























Interactive Weather Map
Tropical Storm Tracking
New forecast layout! Learn more

10-Day Weather Forecast

Advertisements
Track Severe Weather on mobile